Time;durP1;ratioP1;P1;durP2;ratioP2;P2;SDS_P1;SDS_P2;PMS_P1;PMS_P2;Temp;Humidity;BMP_temperature;BMP_pressure;BME280_temperature;BME280_humidity;BME280_pressure;Samples;Min_cycle;Max_cycle;Signal;HPM_P1;HPM_P2
2022/05/18 00:02:36;;;;;;;;;2.00;2.00;;;;;16.49;31.55;99417.69;6027428;28;97124;-72
2022/05/18 00:05:41;;;;;;;;;3.00;3.00;;;;;16.57;31.63;99444.50;6044454;28;97445;-72
2022/05/18 00:08:45;;;;;;;;;2.00;2.00;;;;;16.45;31.69;99446.47;6043812;28;97514;-71
2022/05/18 00:11:49;;;;;;;;;4.00;4.00;;;;;16.40;31.79;99458.13;6044392;28;97493;-70
2022/05/18 00:14:54;;;;;;;;;3.50;3.50;;;;;16.30;31.74;99451.66;6042631;28;97455;-72
2022/05/18 00:17:58;;;;;;;;;5.00;4.40;;;;;16.33;31.65;99467.47;6044333;28;97725;-70
2022/05/18 00:21:01;;;;;;;;;3.00;2.00;;;;;16.22;32.04;99469.22;6044327;28;97521;-70
2022/05/18 00:24:06;;;;;;;;;4.00;4.00;;;;;16.14;31.75;99458.72;6026783;28;96691;-69
2022/05/18 00:27:09;;;;;;;;;2.80;2.20;;;;;16.08;31.68;99467.03;6047892;28;96685;-69
2022/05/18 00:30:16;;;;;;;;;4.00;4.00;;;;;16.00;31.39;99477.22;6045043;28;98085;-71
2022/05/18 00:33:20;;;;;;;;;2.00;2.00;;;;;15.99;31.59;99463.88;6038937;28;97931;-70
2022/05/18 00:36:24;;;;;;;;;4.00;3.50;;;;;16.01;31.42;99475.34;6043345;28;96902;-72
2022/05/18 00:39:27;;;;;;;;;4.00;3.00;;;;;15.96;31.54;99483.41;6026368;28;96696;-71
2022/05/18 00:42:30;;;;;;;;;2.00;2.00;;;;;15.93;31.71;99486.59;6043617;28;97453;-71
2022/05/18 00:45:35;;;;;;;;;2.60;2.60;;;;;15.80;31.49;99490.41;6042551;28;96798;-70
2022/05/18 00:48:39;;;;;;;;;4.00;2.25;;;;;15.79;31.51;99493.38;6043850;28;96491;-70
2022/05/18 00:51:48;;;;;;;;;2.00;2.00;;;;;15.76;31.69;99500.13;6043526;28;96506;-70
2022/05/18 00:54:53;;;;;;;;;1.80;1.80;;;;;15.71;31.87;99504.63;6043839;28;96458;-70
2022/05/18 00:58:05;;;;;;;;;2.25;2.00;;;;;15.74;32.07;99515.84;6041859;28;97182;-72
2022/05/18 01:01:11;;;;;;;;;3.00;2.60;;;;;15.67;32.30;99525.19;6043432;28;98309;-71
2022/05/18 01:04:16;;;;;;;;;2.40;2.40;;;;;15.64;32.26;99525.69;6042456;28;96522;-70
2022/05/18 01:07:25;;;;;;;;;2.20;2.00;;;;;15.58;32.62;99535.63;6044009;28;97380;-70
2022/05/18 01:10:29;;;;;;;;;3.00;2.00;;;;;15.51;32.45;99533.00;6042814;28;96530;-70
2022/05/18 01:13:32;;;;;;;;;3.00;2.00;;;;;15.39;32.73;99539.50;6043173;28;97690;-70
2022/05/18 01:16:40;;;;;;;;;2.50;2.00;;;;;15.33;32.96;99538.56;6026499;28;98230;-70
2022/05/18 01:19:45;;;;;;;;;3.00;3.00;;;;;15.26;32.89;99548.69;6020597;28;98674;-71
2022/05/18 01:22:59;;;;;;;;;3.00;3.00;;;;;15.16;32.72;99556.59;6009239;28;97728;-71
2022/05/18 01:26:28;;;;;;;;;3.00;3.00;;;;;15.08;33.04;99559.69;6007451;28;96728;-69
2022/05/18 01:29:33;;;;;;;;;6.00;4.20;;;;;15.06;33.36;99561.78;6037372;28;97530;-70
2022/05/18 01:32:43;;;;;;;;;5.00;4.40;;;;;14.94;33.12;99572.66;6009830;28;98735;-70
2022/05/18 01:35:48;;;;;;;;;4.00;4.00;;;;;14.78;33.22;99559.75;6027256;28;96683;-72
2022/05/18 01:38:52;;;;;;;;;7.20;6.00;;;;;14.82;33.56;99574.50;6062602;28;96465;-71
2022/05/18 01:42:05;;;;;;;;;4.80;4.20;;;;;14.76;33.27;99574.63;6066508;28;96862;-70
2022/05/18 01:45:11;;;;;;;;;5.00;5.00;;;;;14.73;33.52;99590.31;6025540;28;96702;-70
2022/05/18 01:48:19;;;;;;;;;5.00;4.40;;;;;14.59;33.33;99590.72;6019474;29;96521;-71
2022/05/18 01:51:29;;;;;;;;;6.00;5.00;;;;;14.51;32.97;99597.31;6007914;28;96657;-70
2022/05/18 01:54:37;;;;;;;;;6.75;5.75;;;;;14.45;33.14;99594.69;6042906;28;96463;-70
2022/05/18 01:57:42;;;;;;;;;4.00;4.00;;;;;14.43;33.48;99600.31;6041790;28;97514;-70
2022/05/18 02:00:47;;;;;;;;;4.60;4.60;;;;;14.39;33.48;99609.16;6037641;28;96634;-71
2022/05/18 02:03:51;;;;;;;;;4.50;4.50;;;;;14.32;33.54;99604.59;6025301;28;96723;-70
2022/05/18 02:06:54;;;;;;;;;3.00;2.25;;;;;14.20;33.02;99611.88;6009514;28;97989;-70
2022/05/18 02:09:58;;;;;;;;;4.00;3.00;;;;;14.14;33.19;99604.63;6042709;28;96543;-71
2022/05/18 02:13:03;;;;;;;;;4.00;4.00;;;;;13.98;33.30;99597.09;6024885;28;96840;-71
2022/05/18 02:16:07;;;;;;;;;2.60;2.60;;;;;14.06;33.18;99621.22;6027061;28;96855;-72
2022/05/18 02:19:10;;;;;;;;;2.20;2.20;;;;;14.04;32.89;99623.31;6036718;28;96715;-72
2022/05/18 02:22:14;;;;;;;;;3.00;3.00;;;;;13.96;33.01;99614.66;6024261;28;98791;-70
2022/05/18 02:25:17;;;;;;;;;4.00;3.00;;;;;14.04;33.43;99625.19;6027183;28;96841;-71
2022/05/18 02:28:23;;;;;;;;;3.00;3.00;;;;;13.97;33.74;99628.00;6029489;28;99609;-70
2022/05/18 02:31:27;;;;;;;;;3.00;3.00;;;;;13.89;34.14;99631.81;6031629;28;98112;-70
2022/05/18 02:34:30;;;;;;;;;4.00;3.00;;;;;13.79;34.41;99642.34;6045775;28;97489;-71
2022/05/18 02:37:34;;;;;;;;;3.60;2.00;;;;;13.62;34.84;99626.91;6039513;28;96906;-70
2022/05/18 02:40:37;;;;;;;;;2.80;2.00;;;;;13.66;34.91;99647.91;6046178;28;96435;-72
2022/05/18 02:43:42;;;;;;;;;2.00;2.00;;;;;13.62;35.34;99652.13;6046047;28;97037;-71
2022/05/18 02:46:45;;;;;;;;;2.00;2.00;;;;;13.53;35.59;99655.34;6045117;28;96930;-70
2022/05/18 02:49:49;;;;;;;;;4.00;3.00;;;;;13.42;35.32;99673.97;6028310;28;97816;-71
2022/05/18 02:52:53;;;;;;;;;3.00;2.00;;;;;13.41;35.55;99666.88;6044903;28;97520;-71
2022/05/18 02:56:08;;;;;;;;;3.00;3.00;;;;;13.38;35.44;99678.16;6046050;28;96973;-70
2022/05/18 02:59:13;;;;;;;;;3.00;3.00;;;;;13.32;35.75;99675.50;6035954;28;97050;-71
2022/05/18 03:02:16;;;;;;;;;2.00;2.00;;;;;13.30;35.81;99680.31;6032610;28;97580;-71
2022/05/18 03:05:20;;;;;;;;;2.00;2.00;;;;;13.28;35.79;99682.41;6045819;28;96862;-70
2022/05/18 03:08:24;;;;;;;;;3.00;2.20;;;;;13.28;36.15;99687.84;6044786;28;97547;-70
2022/05/18 03:11:27;;;;;;;;;2.00;2.00;;;;;13.21;36.15;99685.16;6045043;28;96516;-71
2022/05/18 03:14:32;;;;;;;;;4.00;3.60;;;;;13.19;36.45;99699.97;6045212;28;97238;-71
2022/05/18 03:17:36;;;;;;;;;2.00;2.00;;;;;13.15;36.52;99704.97;6044984;28;96801;-71
2022/05/18 03:24:00;;;;;;;;;4.00;4.00;;;;;13.18;36.30;99703.72;6026953;28;97781;-70
2022/05/18 03:27:04;;;;;;;;;3.00;2.20;;;;;13.20;36.42;99709.75;6044041;28;96668;-70
2022/05/18 03:30:11;;;;;;;;;3.40;3.00;;;;;13.24;36.17;99711.00;6044042;28;96403;-71
2022/05/18 03:33:14;;;;;;;;;5.00;3.00;;;;;13.27;36.53;99721.38;6042208;28;97075;-71
2022/05/18 03:36:19;;;;;;;;;3.00;3.00;;;;;13.22;36.10;99711.19;6043744;28;97142;-70
2022/05/18 03:39:23;;;;;;;;;3.00;3.00;;;;;13.36;36.14;99722.75;6030387;28;97628;-70
2022/05/18 03:42:26;;;;;;;;;3.00;3.00;;;;;13.49;35.50;99729.97;6042082;28;96750;-71
2022/05/18 03:45:33;;;;;;;;;4.00;4.00;;;;;13.60;35.44;99732.78;6044426;28;97542;-70
2022/05/18 03:48:37;;;;;;;;;5.00;4.60;;;;;13.66;35.05;99737.34;6036809;28;97945;-71
2022/05/18 03:51:40;;;;;;;;;4.00;4.00;;;;;13.76;34.83;99745.78;6030067;28;96868;-71
2022/05/18 03:54:43;;;;;;;;;2.60;2.00;;;;;13.88;34.51;99746.72;6040648;28;97181;-71
2022/05/18 03:57:47;;;;;;;;;4.00;3.00;;;;;14.00;34.24;99749.53;6025625;28;96756;-70
2022/05/18 04:00:53;;;;;;;;;3.25;3.00;;;;;14.12;33.81;99755.06;6041888;28;96791;-70
2022/05/18 04:03:57;;;;;;;;;4.00;3.00;;;;;14.24;33.90;99755.97;6044649;28;96925;-71
2022/05/18 04:07:00;;;;;;;;;4.60;4.00;;;;;14.36;33.32;99764.22;6035896;28;98183;-73
2022/05/18 04:10:04;;;;;;;;;3.00;2.80;;;;;14.46;33.22;99759.97;6035144;28;97412;-73
2022/05/18 04:13:08;;;;;;;;;4.00;2.00;;;;;14.57;33.22;99774.63;6041177;28;96822;-72
2022/05/18 04:16:13;;;;;;;;;3.40;3.40;;;;;14.65;32.71;99775.19;6028476;28;97155;-71
2022/05/18 04:19:17;;;;;;;;;2.20;2.20;;;;;14.76;32.86;99778.22;6043233;28;96526;-71
2022/05/18 04:22:21;;;;;;;;;3.60;3.60;;;;;14.87;32.42;99772.81;6042927;28;96511;-72
2022/05/18 04:25:26;;;;;;;;;3.00;3.00;;;;;14.94;32.29;99773.59;6026328;28;98865;-72
2022/05/18 04:28:32;;;;;;;;;2.00;2.00;;;;;15.08;32.45;99772.34;6042880;28;97535;-71
2022/05/18 04:31:36;;;;;;;;;4.00;3.00;;;;;14.84;32.18;99739.88;6043896;28;96731;-72
2022/05/18 04:34:41;;;;;;;;;3.00;3.00;;;;;15.02;31.86;99778.69;6043265;28;96737;-71
2022/05/18 04:37:44;;;;;;;;;5.00;4.00;;;;;14.93;31.54;99760.22;6043114;28;97058;-71
2022/05/18 04:40:48;;;;;;;;;4.00;3.00;;;;;15.10;31.53;99783.00;6043923;28;97981;-71
2022/05/18 04:43:51;;;;;;;;;4.40;4.40;;;;;15.04;31.65;99789.34;6043247;28;96547;-70
2022/05/18 04:46:58;;;;;;;;;6.00;6.00;;;;;15.05;32.04;99789.09;6024748;28;98831;-70
2022/05/18 04:50:01;;;;;;;;;3.00;3.00;;;;;14.95;31.13;99793.41;6025958;28;96808;-71
2022/05/18 04:53:05;;;;;;;;;7.00;5.60;;;;;14.97;31.01;99802.16;6043145;28;97508;-72
2022/05/18 04:56:08;;;;;;;;;5.40;4.40;;;;;14.83;30.68;99795.22;6043054;28;97664;-70
2022/05/18 04:59:14;;;;;;;;;6.00;5.00;;;;;14.86;31.14;99790.16;6041832;28;97862;-70
2022/05/18 05:02:19;;;;;;;;;7.00;6.00;;;;;14.78;30.81;99809.47;6025431;28;99619;-71
2022/05/18 05:05:23;;;;;;;;;2.75;2.75;;;;;14.69;31.21;99808.97;6026596;28;97471;-70
2022/05/18 05:08:27;;;;;;;;;4.50;4.00;;;;;14.97;31.33;99808.41;6025784;28;99856;-69
2022/05/18 05:11:30;;;;;;;;;4.00;4.00;;;;;15.16;30.90;99820.91;6041694;28;96966;-70
2022/05/18 05:14:37;;;;;;;;;3.00;3.00;;;;;15.25;30.48;99826.06;6033074;28;99642;-72
2022/05/18 05:17:42;;;;;;;;;4.00;4.00;;;;;15.03;30.37;99823.81;6046556;28;97491;-71
2022/05/18 05:20:46;;;;;;;;;4.00;3.60;;;;;15.21;31.45;99822.94;6043401;28;96848;-70
2022/05/18 05:23:49;;;;;;;;;3.00;3.00;;;;;15.36;30.82;99823.38;6027215;28;97782;-70
2022/05/18 05:26:52;;;;;;;;;3.00;3.00;;;;;15.34;30.13;99830.94;6042439;28;97698;-72
2022/05/18 05:29:56;;;;;;;;;3.00;3.00;;;;;15.50;30.81;99846.59;6024366;28;99429;-71
2022/05/18 05:33:01;;;;;;;;;2.20;2.20;;;;;15.60;30.16;99844.19;6042554;28;96513;-70
2022/05/18 05:36:06;;;;;;;;;4.00;3.00;;;;;15.85;30.43;99851.34;6042120;28;97183;-70
2022/05/18 05:39:10;;;;;;;;;5.00;4.00;;;;;16.00;30.36;99847.13;6025979;28;96696;-72
2022/05/18 05:42:13;;;;;;;;;3.00;2.00;;;;;16.03;30.42;99849.38;6024624;28;96938;-71
2022/05/18 05:45:23;;;;;;;;;4.00;4.00;;;;;16.04;30.33;99855.63;6043337;28;96648;-70
2022/05/18 05:48:30;;;;;;;;;3.00;2.75;;;;;15.66;30.10;99855.19;6042248;28;96845;-71
2022/05/18 05:51:34;;;;;;;;;2.25;2.00;;;;;15.60;30.10;99856.94;6026461;28;97865;-71
2022/05/18 05:54:38;;;;;;;;;4.00;4.00;;;;;15.60;30.34;99856.94;6029387;28;98897;-71
2022/05/18 05:57:41;;;;;;;;;2.20;2.20;;;;;15.63;30.01;99852.94;6046674;28;96918;-72
2022/05/18 06:00:45;;;;;;;;;2.20;2.00;;;;;15.75;30.36;99864.66;6029129;28;97143;-71
2022/05/18 06:03:52;;;;;;;;;3.00;3.00;;;;;15.89;30.68;99856.06;6046848;28;96557;-71
2022/05/18 06:06:56;;;;;;;;;3.00;2.00;;;;;16.29;31.20;99878.03;6047117;28;98026;-70
2022/05/18 06:09:59;;;;;;;;;3.00;3.00;;;;;16.55;30.62;99881.38;6046829;28;97475;-70
2022/05/18 06:13:06;;;;;;;;;2.00;2.00;;;;;16.82;30.91;99885.31;6061151;28;97581;-71
2022/05/18 06:16:10;;;;;;;;;2.67;2.67;;;;;16.66;29.02;99864.25;6070169;28;96902;-71
2022/05/18 06:19:15;;;;;;;;;2.00;2.00;;;;;16.88;30.26;99887.91;6052771;28;96772;-70
2022/05/18 06:22:19;;;;;;;;;3.80;3.00;;;;;17.03;29.47;99890.16;6052739;28;97192;-70
2022/05/18 06:25:22;;;;;;;;;3.00;3.00;;;;;16.97;29.01;99893.81;6070190;28;97492;-70
2022/05/18 06:28:26;;;;;;;;;3.00;2.20;;;;;17.08;29.36;99903.06;6069087;28;96566;-70
2022/05/18 06:31:30;;;;;;;;;3.00;2.00;;;;;17.16;29.22;99900.78;6052279;28;96835;-71
2022/05/18 06:34:44;;;;;;;;;5.00;5.00;;;;;17.20;28.82;99915.56;6070586;28;96380;-71
2022/05/18 06:37:48;;;;;;;;;2.00;2.00;;;;;16.95;28.92;99916.94;6070700;28;97807;-71
2022/05/18 06:44:12;;;;;;;;;3.00;3.00;;;;;17.26;28.42;99927.41;6005635;29;97142;-70
2022/05/18 06:47:16;;;;;;;;;2.20;2.00;;;;;17.48;28.73;99936.63;6022998;29;97489;-70
2022/05/18 06:50:21;;;;;;;;;4.00;3.00;;;;;17.91;28.93;99933.44;6022361;29;97129;-70
2022/05/18 06:53:24;;;;;;;;;2.00;2.00;;;;;18.18;27.27;99933.63;6004925;29;97786;-72
2022/05/18 06:56:30;;;;;;;;;3.00;3.00;;;;;18.34;27.68;99930.09;6005251;29;98835;-71
2022/05/18 06:59:34;;;;;;;;;2.00;2.00;;;;;18.12;27.22;99940.09;6021287;29;97433;-71
2022/05/18 07:03:02;;;;;;;;;2.00;2.00;;;;;18.04;27.21;99944.03;6004312;29;98473;-70
2022/05/18 07:06:15;;;;;;;;;4.00;3.25;;;;;18.03;27.52;99956.00;6005165;29;97780;-70
2022/05/18 07:09:21;;;;;;;;;5.00;3.60;;;;;18.07;27.44;99954.47;6005464;29;100027;-72
2022/05/18 07:12:25;;;;;;;;;2.40;2.40;;;;;18.26;27.45;99955.09;6017755;28;97929;-70
2022/05/18 07:15:28;;;;;;;;;2.20;2.00;;;;;18.56;26.61;99952.09;6049217;28;97542;-70
2022/05/18 07:18:33;;;;;;;;;3.00;2.00;;;;;18.60;26.48;99951.34;6068697;28;97494;-70
2022/05/18 07:21:38;;;;;;;;;3.00;2.00;;;;;18.93;27.10;99963.31;6051678;28;97812;-70
2022/05/18 07:24:42;;;;;;;;;4.00;3.00;;;;;19.42;26.38;99964.31;6069441;28;96381;-70
2022/05/18 07:27:45;;;;;;;;;4.00;3.00;;;;;19.89;26.25;99960.00;6050498;28;97500;-71
2022/05/18 07:31:10;;;;;;;;;4.00;4.00;;;;;20.25;26.05;99941.22;6035324;28;97322;-72
2022/05/18 07:34:34;;;;;;;;;3.00;3.00;;;;;20.69;24.93;99961.09;6068625;28;96660;-71
2022/05/18 07:37:39;;;;;;;;;2.00;2.00;;;;;20.97;23.10;99962.66;6068956;28;96994;-72
2022/05/18 07:40:46;;;;;;;;;3.40;2.40;;;;;21.26;23.59;99963.97;6052306;28;97970;-73
2022/05/18 07:43:49;;;;;;;;;4.00;3.00;;;;;21.52;23.48;99971.25;6066470;28;99432;-72
2022/05/18 07:46:53;;;;;;;;;4.00;3.00;;;;;21.76;23.18;99981.78;6068625;28;97015;-70
2022/05/18 07:49:56;;;;;;;;;3.00;2.80;;;;;21.89;22.42;99976.63;6063112;28;97285;-70
2022/05/18 07:53:01;;;;;;;;;3.00;3.00;;;;;22.00;23.21;99974.75;6044596;28;96790;-71
2022/05/18 07:56:05;;;;;;;;;5.00;5.00;;;;;22.15;22.67;99974.81;6027189;28;98393;-71
2022/05/18 07:59:10;;;;;;;;;3.00;2.00;;;;;21.96;22.28;99952.53;6043686;28;97040;-71
2022/05/18 08:02:13;;;;;;;;;4.00;4.00;;;;;22.45;22.49;99988.59;6044015;28;96755;-71
2022/05/18 08:05:17;;;;;;;;;4.00;3.00;;;;;22.78;21.68;99989.19;6027637;28;97340;-71
2022/05/18 08:08:23;;;;;;;;;4.60;4.00;;;;;23.03;22.34;99983.69;6043429;28;96785;-71
2022/05/18 08:18:08;;;;;;;;;4.00;3.75;;;;;23.66;21.54;99993.19;6066607;28;96593;-71
2022/05/18 08:21:12;;;;;;;;;4.00;4.00;;;;;23.79;20.50;99993.72;6068058;28;98104;-71
2022/05/18 08:24:17;;;;;;;;;5.40;4.00;;;;;23.94;20.34;100000.00;6067544;28;96592;-71
2022/05/18 08:27:20;;;;;;;;;3.00;3.00;;;;;24.00;19.90;99987.81;6046049;28;98138;-72
2022/05/18 08:30:24;;;;;;;;;4.00;4.00;;;;;24.01;19.53;99991.41;6043679;28;98100;-72
2022/05/18 08:33:31;;;;;;;;;5.00;4.00;;;;;24.11;20.37;99994.13;6044264;28;97302;-72
2022/05/18 08:36:35;;;;;;;;;6.00;4.00;;;;;24.32;20.32;99997.63;6044257;28;96483;-72
2022/05/18 08:39:41;;;;;;;;;3.00;3.00;;;;;24.36;20.82;99976.63;6043709;28;96460;-72
2022/05/18 08:42:44;;;;;;;;;4.00;3.00;;;;;24.62;18.84;99991.06;5996252;29;97193;-73
2022/05/18 08:45:51;;;;;;;;;3.00;3.00;;;;;24.54;19.42;99998.00;6003387;29;96585;-71
2022/05/18 08:49:02;;;;;;;;;6.00;4.50;;;;;24.45;20.08;99997.78;6025091;28;97043;-71
2022/05/18 08:52:24;;;;;;;;;3.20;2.80;;;;;24.74;18.95;100008.88;6042241;28;96655;-70
2022/05/18 08:55:46;;;;;;;;;4.00;4.00;;;;;24.95;19.23;100004.88;6025916;28;96858;-71
2022/05/18 08:58:53;;;;;;;;;5.00;4.00;;;;;25.00;20.12;100009.53;6026442;28;98345;-70
2022/05/18 09:01:59;;;;;;;;;3.00;3.00;;;;;25.07;18.84;100009.22;6042994;28;97535;-72
2022/05/18 09:05:06;;;;;;;;;3.00;3.00;;;;;25.22;20.12;100009.03;6044013;28;96735;-70
2022/05/18 09:08:29;;;;;;;;;3.00;3.00;;;;;25.35;18.93;100006.44;6043813;28;97618;-70
2022/05/18 09:11:33;;;;;;;;;4.75;4.00;;;;;25.39;17.97;100006.69;6048278;28;96433;-70
2022/05/18 09:14:38;;;;;;;;;3.00;3.00;;;;;25.45;18.22;100011.03;6048755;28;96722;-70
2022/05/18 09:17:53;;;;;;;;;3.00;3.00;;;;;25.41;19.12;100012.75;6049210;28;98449;-71
2022/05/18 09:21:10;;;;;;;;;3.00;3.00;;;;;25.47;18.75;100006.03;6067693;28;96742;-71
2022/05/18 09:24:28;;;;;;;;;4.00;3.00;;;;;25.11;17.59;100008.34;6049672;28;100073;-71
2022/05/18 09:28:02;;;;;;;;;4.00;3.50;;;;;25.10;19.22;100011.38;6053182;28;96695;-71
2022/05/18 09:31:21;;;;;;;;;4.40;4.00;;;;;24.91;17.63;100003.81;6054078;28;96526;-71
2022/05/18 09:34:52;;;;;;;;;2.00;2.00;;;;;25.16;18.79;99997.25;6054580;28;97816;-70
2022/05/18 09:38:02;;;;;;;;;2.50;2.00;;;;;24.74;19.04;99978.56;6070951;28;96878;-71
2022/05/18 09:41:10;;;;;;;;;5.00;4.00;;;;;24.80;17.90;99993.94;6031381;28;98507;-70
2022/05/18 09:44:22;;;;;;;;;2.00;2.00;;;;;24.53;18.24;99990.88;6030294;28;97858;-71
2022/05/18 09:47:29;;;;;;;;;2.00;2.00;;;;;24.58;18.67;99986.09;6030225;28;96949;-70
2022/05/18 09:50:33;;;;;;;;;3.00;3.00;;;;;24.88;18.80;99990.59;6029753;28;97011;-71
2022/05/18 09:53:37;;;;;;;;;4.00;3.50;;;;;25.24;19.44;99993.03;6045376;28;97499;-71
2022/05/18 09:56:46;;;;;;;;;2.00;2.00;;;;;25.30;17.71;99991.88;6046984;28;96468;-70
2022/05/18 09:59:57;;;;;;;;;3.40;3.40;;;;;25.49;18.72;99989.19;6045628;28;97481;-70
2022/05/18 10:09:52;;;;;;;;;3.00;2.40;;;;;25.76;17.96;99984.72;5959281;28;96904;-70
2022/05/18 10:13:04;;;;;;;;;2.80;2.00;;;;;26.07;18.59;99989.88;6030240;28;100447;-70
2022/05/18 10:16:38;;;;;;;;;2.00;2.00;;;;;26.41;17.96;99993.28;6029145;28;96718;-71
2022/05/18 10:19:45;;;;;;;;;2.00;2.00;;;;;26.72;16.96;99980.63;6046042;28;96718;-70
2022/05/18 10:22:50;;;;;;;;;2.00;2.00;;;;;26.95;15.85;99978.06;6046198;28;96853;-69
2022/05/18 10:25:54;;;;;;;;;3.00;2.00;;;;;27.17;17.08;99976.25;6046234;28;96367;-72
2022/05/18 10:29:07;;;;;;;;;2.00;2.00;;;;;27.09;14.53;99973.38;6013877;28;98698;-70
2022/05/18 10:32:22;;;;;;;;;2.00;2.00;;;;;27.19;16.02;99969.59;6046453;28;96399;-71
2022/05/18 10:35:47;;;;;;;;;2.00;2.00;;;;;27.30;16.92;99963.56;6046676;28;96508;-72
2022/05/18 10:38:54;;;;;;;;;2.00;2.00;;;;;27.45;16.07;99965.22;6029727;28;97810;-71
2022/05/18 10:41:58;;;;;;;;;2.00;2.00;;;;;27.32;14.85;99964.06;6046769;28;97628;-70
2022/05/18 10:45:03;;;;;;;;;2.00;1.75;;;;;27.06;15.72;99963.75;6066507;28;97418;-71
2022/05/18 10:48:17;;;;;;;;;3.00;2.00;;;;;26.82;17.84;99962.22;6048421;28;96486;-71
2022/05/18 10:51:32;;;;;;;;;3.00;2.00;;;;;26.83;16.38;99959.13;6044040;28;99417;-71
2022/05/18 10:54:36;;;;;;;;;1.50;1.00;;;;;26.85;15.63;99953.28;6046038;28;96938;-70
2022/05/18 10:57:42;;;;;;;;;1.00;1.00;;;;;26.98;14.91;99958.06;6044260;28;98140;-72
2022/05/18 11:00:52;;;;;;;;;2.00;2.00;;;;;27.12;15.86;99950.63;6044464;28;98107;-72
2022/05/18 11:04:07;;;;;;;;;0.00;0.00;;;;;27.37;15.21;99944.59;6046460;28;97440;-71
2022/05/18 11:07:11;;;;;;;;;1.00;1.00;;;;;27.54;14.86;99953.16;6045989;28;97523;-70
2022/05/18 11:10:21;;;;;;;;;1.20;0.20;;;;;27.71;15.78;99949.75;6044563;28;96502;-72
2022/05/18 11:13:34;;;;;;;;;2.00;1.00;;;;;27.78;14.13;99941.84;6028033;28;98679;-71
2022/05/18 11:16:48;;;;;;;;;1.40;1.00;;;;;27.89;14.26;99939.69;6028908;28;97434;-71
2022/05/18 11:20:03;;;;;;;;;1.00;0.80;;;;;28.02;14.76;99947.13;6043478;28;99013;-71
2022/05/18 11:23:23;;;;;;;;;1.00;1.00;;;;;28.19;13.60;99941.81;6044229;28;97237;-72
2022/05/18 11:26:37;;;;;;;;;1.00;1.00;;;;;28.34;13.67;99937.84;6045882;28;96530;-71
2022/05/18 11:29:55;;;;;;;;;1.00;1.00;;;;;28.32;12.90;99940.94;6045403;28;96428;-70
2022/05/18 11:33:11;;;;;;;;;0.00;0.00;;;;;28.36;13.40;99932.78;6051441;28;97227;-71
2022/05/18 11:36:29;;;;;;;;;2.00;1.00;;;;;28.44;13.48;99926.53;6051718;28;98384;-71
2022/05/18 11:39:47;;;;;;;;;2.00;1.00;;;;;28.56;13.90;99929.53;6068707;28;96625;-71
2022/05/18 11:43:25;;;;;;;;;1.80;1.00;;;;;28.64;14.22;99934.31;6069236;28;96481;-70
2022/05/18 11:46:40;;;;;;;;;1.00;1.00;;;;;28.84;13.99;99925.50;6068869;28;96512;-73
2022/05/18 11:49:54;;;;;;;;;1.00;0.00;;;;;28.65;12.71;99924.84;6067788;28;97461;-71
2022/05/18 11:53:15;;;;;;;;;0.00;0.00;;;;;28.72;14.38;99930.81;6006045;28;97445;-70
2022/05/18 11:56:30;;;;;;;;;0.00;0.00;;;;;28.83;13.00;99937.72;6044152;28;97028;-70
2022/05/18 11:59:57;;;;;;;;;1.00;1.00;;;;;28.41;13.26;99927.13;6044970;28;96563;-71
2022/05/18 12:03:28;;;;;;;;;2.00;2.00;;;;;28.09;14.75;99916.22;6034338;28;96700;-70
2022/05/18 12:07:01;;;;;;;;;1.00;1.00;;;;;28.23;13.86;99928.94;6021886;28;96414;-72
2022/05/18 12:10:26;;;;;;;;;1.75;1.00;;;;;28.41;13.65;99929.91;6021597;29;96532;-71
2022/05/18 12:13:41;;;;;;;;;1.75;1.00;;;;;28.50;13.99;99927.19;6004610;29;98184;-72
2022/05/18 12:16:55;;;;;;;;;1.00;1.00;;;;;28.61;13.47;99918.31;6021457;29;97484;-72
2022/05/18 12:20:05;;;;;;;;;0.00;0.00;;;;;28.51;13.08;99917.72;6021259;29;96496;-71
2022/05/18 12:23:13;;;;;;;;;2.00;2.00;;;;;28.43;13.59;99911.00;6021348;29;96777;-71
2022/05/18 12:26:21;;;;;;;;;2.00;2.00;;;;;28.27;14.76;99921.63;5988488;29;96669;-71
2022/05/18 12:29:27;;;;;;;;;1.00;1.00;;;;;28.32;13.59;99920.69;6021110;29;96970;-72
2022/05/18 12:32:31;;;;;;;;;1.40;1.40;;;;;28.20;12.65;99918.47;6033449;28;96605;-72
2022/05/18 12:35:39;;;;;;;;;1.00;1.00;;;;;28.21;15.09;99920.09;6050126;28;97943;-73
2022/05/18 12:38:55;;;;;;;;;1.00;1.00;;;;;28.27;15.19;99921.63;6068070;28;96793;-71
2022/05/18 12:42:02;;;;;;;;;1.40;1.00;;;;;28.50;14.06;99911.38;6067806;28;96578;-71
2022/05/18 12:45:15;;;;;;;;;1.40;1.00;;;;;28.46;13.90;99907.59;6043906;28;96577;-70
2022/05/18 12:48:23;;;;;;;;;1.00;1.00;;;;;28.55;14.65;99913.19;6026869;28;98320;-70
2022/05/18 12:51:53;;;;;;;;;0.00;0.00;;;;;28.19;13.27;99910.47;6044373;28;97469;-70
2022/05/18 12:55:01;;;;;;;;;1.00;1.00;;;;;27.86;13.62;99910.63;6023418;28;96884;-69
2022/05/18 12:58:25;;;;;;;;;1.00;1.00;;;;;27.31;13.50;99898.75;6026028;28;98274;-71
2022/05/18 13:01:31;;;;;;;;;0.00;0.00;;;;;26.87;13.73;99904.03;6042363;28;97433;-71
2022/05/18 13:04:41;;;;;;;;;1.00;1.00;;;;;27.19;14.42;99901.22;6042708;28;97375;-71
2022/05/18 13:07:47;;;;;;;;;1.00;1.00;;;;;27.55;14.60;99893.03;6025800;28;97948;-71
2022/05/18 13:11:11;;;;;;;;;2.00;1.00;;;;;27.70;13.37;99900.19;6043133;28;97564;-71
2022/05/18 13:14:27;;;;;;;;;0.25;0.00;;;;;27.70;14.10;99892.72;6026014;28;96869;-71
2022/05/18 13:17:51;;;;;;;;;1.00;1.00;;;;;27.87;14.64;99878.19;6043704;28;96877;-70
2022/05/18 13:20:59;;;;;;;;;1.00;1.00;;;;;28.05;14.42;99874.47;6042468;28;97018;-71
2022/05/18 13:24:07;;;;;;;;;3.00;2.00;;;;;28.31;14.53;99886.59;6042770;28;97453;-70
2022/05/18 13:27:15;;;;;;;;;1.00;1.00;;;;;28.41;13.58;99885.53;6026729;28;96594;-70
2022/05/18 13:30:37;;;;;;;;;1.40;1.40;;;;;28.35;14.14;99876.50;6026905;28;98024;-70
2022/05/18 13:34:09;;;;;;;;;1.00;1.00;;;;;28.28;13.67;99883.63;6010878;28;98769;-70
2022/05/18 13:37:13;;;;;;;;;1.00;1.00;;;;;28.07;14.03;99880.50;6043511;28;97062;-70
2022/05/18 13:40:35;;;;;;;;;2.00;1.50;;;;;27.87;14.66;99873.47;6048264;28;96618;-71
2022/05/18 13:43:42;;;;;;;;;1.00;1.00;;;;;28.17;15.43;99876.69;6033880;28;96719;-71
2022/05/18 13:46:48;;;;;;;;;1.00;1.00;;;;;28.10;14.04;99863.22;6066358;28;97494;-71
2022/05/18 13:50:03;;;;;;;;;1.00;1.00;;;;;27.97;14.24;99870.47;6049435;28;97727;-71
2022/05/18 13:53:10;;;;;;;;;1.40;1.00;;;;;27.51;13.59;99861.56;6049411;28;98670;-70
2022/05/18 13:56:18;;;;;;;;;1.00;1.00;;;;;27.34;14.65;99862.13;6066763;28;96630;-71
2022/05/18 13:59:26;;;;;;;;;1.00;1.00;;;;;27.21;14.69;99851.06;6033980;28;97010;-72
2022/05/18 14:02:34;;;;;;;;;2.00;2.00;;;;;26.98;14.72;99861.19;6026488;28;98769;-70
2022/05/18 14:05:41;;;;;;;;;1.00;1.00;;;;;26.76;14.63;99849.97;6019383;29;97046;-71
2022/05/18 14:08:58;;;;;;;;;2.00;2.00;;;;;26.72;14.98;99850.59;6018115;29;99407;-71
2022/05/18 14:12:01;;;;;;;;;1.00;1.00;;;;;26.08;14.98;99840.34;6003583;29;98400;-71
2022/05/18 14:15:32;;;;;;;;;2.00;2.00;;;;;25.82;15.33;99842.66;6033645;28;97435;-70
2022/05/18 14:18:41;;;;;;;;;1.40;1.00;;;;;25.74;15.54;99843.34;6046845;28;98028;-70
2022/05/18 14:21:46;;;;;;;;;1.00;1.00;;;;;25.86;16.68;99845.63;6028719;28;97463;-71
2022/05/18 14:24:53;;;;;;;;;2.00;1.00;;;;;26.09;16.20;99841.16;6046210;28;97175;-70
2022/05/18 14:28:01;;;;;;;;;0.80;0.80;;;;;26.11;15.76;99839.72;6029628;28;96452;-70
2022/05/18 14:31:05;;;;;;;;;1.00;1.00;;;;;26.24;16.46;99846.47;6029842;28;98139;-70
2022/05/18 14:34:13;;;;;;;;;0.00;0.00;;;;;26.42;14.89;99845.59;6051064;28;96750;-70
2022/05/18 14:37:27;;;;;;;;;1.00;1.00;;;;;26.38;15.00;99843.75;6036629;28;96411;-70
2022/05/18 14:40:37;;;;;;;;;0.75;0.75;;;;;26.45;14.51;99838.63;6046621;28;96882;-70
2022/05/18 14:43:40;;;;;;;;;1.00;1.00;;;;;26.16;14.22;99838.81;6046361;28;97499;-70
2022/05/18 14:46:48;;;;;;;;;1.00;1.00;;;;;26.14;14.73;99844.66;6046071;28;96520;-71
2022/05/18 14:49:57;;;;;;;;;1.00;1.00;;;;;26.29;15.91;99846.41;6046300;28;96580;-71
2022/05/18 14:53:03;;;;;;;;;1.00;0.00;;;;;26.37;15.10;99839.34;6028401;28;97690;-72
2022/05/18 14:56:11;;;;;;;;;1.00;1.00;;;;;26.38;14.33;99846.50;6046221;28;96439;-71
2022/05/18 14:59:17;;;;;;;;;1.00;1.00;;;;;26.46;14.86;99829.22;6044353;28;97131;-71
2022/05/18 15:02:23;;;;;;;;;1.00;1.00;;;;;26.22;13.73;99837.66;6011066;28;98093;-72
2022/05/18 15:05:30;;;;;;;;;2.00;1.00;;;;;26.08;14.21;99837.56;6047716;28;96767;-72
2022/05/18 15:08:43;;;;;;;;;2.00;1.00;;;;;25.73;14.56;99833.41;6056208;28;96698;-72